sensor_id;sensor_type;location;lat;lon;timestamp;P1;durP1;ratioP1;P2;durP2;ratioP2
69161;SDS011;56269;51.738;21.652;2023-06-01T00:01:24;10.75;;;3.80;;
69161;SDS011;56269;51.738;21.652;2023-06-01T00:03:50;8.82;;;3.78;;
69161;SDS011;56269;51.738;21.652;2023-06-01T00:06:17;9.40;;;3.80;;
69161;SDS011;56269;51.738;21.652;2023-06-01T00:08:42;10.65;;;3.60;;
69161;SDS011;56269;51.738;21.652;2023-06-01T00:11:09;10.48;;;3.75;;
69161;SDS011;56269;51.738;21.652;2023-06-01T00:13:35;8.65;;;3.65;;
69161;SDS011;56269;51.738;21.652;2023-06-01T00:16:01;11.27;;;3.80;;
69161;SDS011;56269;51.738;21.652;2023-06-01T00:18:27;9.37;;;3.93;;
69161;SDS011;56269;51.738;21.652;2023-06-01T00:20:54;15.25;;;4.10;;
69161;SDS011;56269;51.738;21.652;2023-06-01T00:23:20;9.48;;;3.75;;
69161;SDS011;56269;51.738;21.652;2023-06-01T00:25:47;9.82;;;3.67;;
69161;SDS011;56269;51.738;21.652;2023-06-01T00:28:13;8.98;;;3.63;;
69161;SDS011;56269;51.738;21.652;2023-06-01T00:30:40;8.83;;;3.77;;
69161;SDS011;56269;51.738;21.652;2023-06-01T00:33:06;10.50;;;4.13;;
69161;SDS011;56269;51.738;21.652;2023-06-01T00:35:33;11.60;;;4.00;;
69161;SDS011;56269;51.738;21.652;2023-06-01T00:37:59;9.48;;;3.78;;
69161;SDS011;56269;51.738;21.652;2023-06-01T00:40:25;10.10;;;3.93;;
69161;SDS011;56269;51.738;21.652;2023-06-01T00:42:51;12.77;;;3.95;;
69161;SDS011;56269;51.738;21.652;2023-06-01T00:45:17;12.25;;;4.38;;
69161;SDS011;56269;51.738;21.652;2023-06-01T00:47:43;11.23;;;4.53;;
69161;SDS011;56269;51.738;21.652;2023-06-01T00:50:10;11.35;;;4.32;;
69161;SDS011;56269;51.738;21.652;2023-06-01T00:52:37;9.67;;;4.03;;
69161;SDS011;56269;51.738;21.652;2023-06-01T00:55:04;9.77;;;4.03;;
69161;SDS011;56269;51.738;21.652;2023-06-01T00:57:33;14.27;;;4.38;;
69161;SDS011;56269;51.738;21.652;2023-06-01T00:59:59;10.85;;;4.18;;
69161;SDS011;56269;51.738;21.652;2023-06-01T01:02:35;10.13;;;4.35;;
69161;SDS011;56269;51.738;21.652;2023-06-01T01:05:07;12.43;;;4.57;;
69161;SDS011;56269;51.738;21.652;2023-06-01T01:07:42;10.15;;;4.43;;
69161;SDS011;56269;51.738;21.652;2023-06-01T01:13:19;11.07;;;4.43;;
69161;SDS011;56269;51.738;21.652;2023-06-01T01:16:14;9.90;;;4.38;;
69161;SDS011;56269;51.738;21.652;2023-06-01T01:18:54;11.40;;;4.60;;
69161;SDS011;56269;51.738;21.652;2023-06-01T01:21:29;11.15;;;4.35;;
69161;SDS011;56269;51.738;21.652;2023-06-01T01:29:51;11.40;;;4.75;;
69161;SDS011;56269;51.738;21.652;2023-06-01T01:32:21;10.43;;;4.50;;
69161;SDS011;56269;51.738;21.652;2023-06-01T01:34:49;12.20;;;4.63;;
69161;SDS011;56269;51.738;21.652;2023-06-01T01:37:17;10.57;;;4.95;;
69161;SDS011;56269;51.738;21.652;2023-06-01T01:39:43;12.63;;;5.18;;
69161;SDS011;56269;51.738;21.652;2023-06-01T01:42:09;12.25;;;4.70;;
69161;SDS011;56269;51.738;21.652;2023-06-01T01:44:35;10.83;;;4.67;;
69161;SDS011;56269;51.738;21.652;2023-06-01T01:49:40;12.65;;;5.13;;
69161;SDS011;56269;51.738;21.652;2023-06-01T01:52:14;12.57;;;5.20;;
69161;SDS011;56269;51.738;21.652;2023-06-01T01:54:46;13.50;;;5.85;;
69161;SDS011;56269;51.738;21.652;2023-06-01T01:57:16;14.67;;;6.03;;
69161;SDS011;56269;51.738;21.652;2023-06-01T01:59:43;12.75;;;5.50;;
69161;SDS011;56269;51.738;21.652;2023-06-01T02:02:11;12.57;;;5.40;;
69161;SDS011;56269;51.738;21.652;2023-06-01T02:04:41;14.73;;;5.60;;
69161;SDS011;56269;51.738;21.652;2023-06-01T02:07:08;13.90;;;5.95;;
69161;SDS011;56269;51.738;21.652;2023-06-01T02:09:34;11.37;;;5.23;;
69161;SDS011;56269;51.738;21.652;2023-06-01T02:12:01;12.93;;;5.65;;
69161;SDS011;56269;51.738;21.652;2023-06-01T02:14:27;12.75;;;5.68;;
69161;SDS011;56269;51.738;21.652;2023-06-01T02:16:54;15.15;;;5.20;;
69161;SDS011;56269;51.738;21.652;2023-06-01T02:19:21;13.93;;;5.70;;
69161;SDS011;56269;51.738;21.652;2023-06-01T02:21:47;12.93;;;5.57;;
69161;SDS011;56269;51.738;21.652;2023-06-01T02:24:13;12.38;;;5.57;;
69161;SDS011;56269;51.738;21.652;2023-06-01T02:26:40;11.88;;;5.53;;
69161;SDS011;56269;51.738;21.652;2023-06-01T02:29:06;13.35;;;5.50;;
69161;SDS011;56269;51.738;21.652;2023-06-01T02:31:33;13.05;;;6.22;;
69161;SDS011;56269;51.738;21.652;2023-06-01T02:34:02;11.93;;;5.77;;
69161;SDS011;56269;51.738;21.652;2023-06-01T02:36:28;13.68;;;5.55;;
69161;SDS011;56269;51.738;21.652;2023-06-01T02:38:55;13.57;;;5.95;;
69161;SDS011;56269;51.738;21.652;2023-06-01T02:41:21;14.82;;;5.80;;
69161;SDS011;56269;51.738;21.652;2023-06-01T02:43:47;13.77;;;5.50;;
69161;SDS011;56269;51.738;21.652;2023-06-01T02:46:16;14.47;;;6.10;;
69161;SDS011;56269;51.738;21.652;2023-06-01T02:48:46;14.45;;;5.78;;
69161;SDS011;56269;51.738;21.652;2023-06-01T02:51:12;12.80;;;5.93;;
69161;SDS011;56269;51.738;21.652;2023-06-01T02:53:39;12.02;;;5.43;;
69161;SDS011;56269;51.738;21.652;2023-06-01T02:56:06;17.90;;;5.80;;
69161;SDS011;56269;51.738;21.652;2023-06-01T02:58:32;18.33;;;6.00;;
69161;SDS011;56269;51.738;21.652;2023-06-01T03:00:58;13.50;;;5.60;;
69161;SDS011;56269;51.738;21.652;2023-06-01T03:03:24;13.10;;;5.57;;
69161;SDS011;56269;51.738;21.652;2023-06-01T03:05:51;12.55;;;5.47;;
69161;SDS011;56269;51.738;21.652;2023-06-01T03:08:17;16.27;;;6.28;;
69161;SDS011;56269;51.738;21.652;2023-06-01T03:10:46;16.60;;;6.13;;
69161;SDS011;56269;51.738;21.652;2023-06-01T03:13:12;15.38;;;6.18;;
69161;SDS011;56269;51.738;21.652;2023-06-01T03:15:39;15.65;;;5.90;;
69161;SDS011;56269;51.738;21.652;2023-06-01T03:18:05;15.30;;;6.68;;
69161;SDS011;56269;51.738;21.652;2023-06-01T03:20:32;13.07;;;6.00;;
69161;SDS011;56269;51.738;21.652;2023-06-01T03:22:58;11.93;;;5.60;;
69161;SDS011;56269;51.738;21.652;2023-06-01T03:25:24;14.00;;;6.00;;
69161;SDS011;56269;51.738;21.652;2023-06-01T03:27:50;16.75;;;6.10;;
69161;SDS011;56269;51.738;21.652;2023-06-01T03:30:17;15.07;;;6.18;;
69161;SDS011;56269;51.738;21.652;2023-06-01T03:32:43;15.25;;;5.95;;
69161;SDS011;56269;51.738;21.652;2023-06-01T03:35:11;15.87;;;5.97;;
69161;SDS011;56269;51.738;21.652;2023-06-01T03:37:38;12.52;;;5.68;;
69161;SDS011;56269;51.738;21.652;2023-06-01T03:40:09;13.32;;;5.90;;
69161;SDS011;56269;51.738;21.652;2023-06-01T03:42:42;10.82;;;4.85;;
69161;SDS011;56269;51.738;21.652;2023-06-01T03:45:10;13.02;;;5.30;;
69161;SDS011;56269;51.738;21.652;2023-06-01T03:47:37;12.43;;;5.20;;
69161;SDS011;56269;51.738;21.652;2023-06-01T03:50:04;13.50;;;5.07;;
69161;SDS011;56269;51.738;21.652;2023-06-01T03:52:32;14.18;;;5.70;;
69161;SDS011;56269;51.738;21.652;2023-06-01T03:54:59;18.63;;;7.55;;
69161;SDS011;56269;51.738;21.652;2023-06-01T03:57:27;19.95;;;8.60;;
69161;SDS011;56269;51.738;21.652;2023-06-01T03:59:54;20.63;;;7.20;;
69161;SDS011;56269;51.738;21.652;2023-06-01T04:02:20;13.73;;;6.78;;
69161;SDS011;56269;51.738;21.652;2023-06-01T04:04:48;15.77;;;5.95;;
69161;SDS011;56269;51.738;21.652;2023-06-01T04:07:14;11.23;;;5.35;;
69161;SDS011;56269;51.738;21.652;2023-06-01T04:09:44;10.60;;;5.40;;
69161;SDS011;56269;51.738;21.652;2023-06-01T04:12:12;14.23;;;5.20;;
69161;SDS011;56269;51.738;21.652;2023-06-01T04:14:39;10.98;;;5.55;;
69161;SDS011;56269;51.738;21.652;2023-06-01T04:17:05;11.85;;;5.38;;
69161;SDS011;56269;51.738;21.652;2023-06-01T04:19:32;11.18;;;4.85;;
69161;SDS011;56269;51.738;21.652;2023-06-01T04:22:00;8.80;;;4.68;;
69161;SDS011;56269;51.738;21.652;2023-06-01T04:24:26;11.60;;;4.13;;
69161;SDS011;56269;51.738;21.652;2023-06-01T04:26:52;10.55;;;4.57;;
69161;SDS011;56269;51.738;21.652;2023-06-01T04:29:19;11.32;;;4.20;;
69161;SDS011;56269;51.738;21.652;2023-06-01T04:31:46;10.73;;;4.10;;
69161;SDS011;56269;51.738;21.652;2023-06-01T04:34:13;14.38;;;4.30;;
69161;SDS011;56269;51.738;21.652;2023-06-01T04:36:39;11.20;;;4.10;;
69161;SDS011;56269;51.738;21.652;2023-06-01T04:39:05;10.88;;;4.10;;
69161;SDS011;56269;51.738;21.652;2023-06-01T04:41:33;12.77;;;3.80;;
69161;SDS011;56269;51.738;21.652;2023-06-01T04:44:01;10.93;;;4.63;;
69161;SDS011;56269;51.738;21.652;2023-06-01T04:46:31;8.85;;;4.05;;
69161;SDS011;56269;51.738;21.652;2023-06-01T04:48:58;9.73;;;4.00;;
69161;SDS011;56269;51.738;21.652;2023-06-01T04:51:26;8.43;;;3.40;;
69161;SDS011;56269;51.738;21.652;2023-06-01T04:53:55;8.30;;;3.83;;
69161;SDS011;56269;51.738;21.652;2023-06-01T04:56:22;10.93;;;3.47;;
69161;SDS011;56269;51.738;21.652;2023-06-01T04:58:55;10.50;;;3.97;;
69161;SDS011;56269;51.738;21.652;2023-06-01T05:01:22;8.47;;;3.87;;
69161;SDS011;56269;51.738;21.652;2023-06-01T05:03:51;9.13;;;3.67;;
69161;SDS011;56269;51.738;21.652;2023-06-01T05:06:20;9.27;;;3.97;;
69161;SDS011;56269;51.738;21.652;2023-06-01T05:08:47;12.15;;;4.18;;
69161;SDS011;56269;51.738;21.652;2023-06-01T05:11:13;9.45;;;3.90;;
69161;SDS011;56269;51.738;21.652;2023-06-01T05:13:40;9.20;;;4.00;;
69161;SDS011;56269;51.738;21.652;2023-06-01T05:16:07;10.75;;;3.92;;
69161;SDS011;56269;51.738;21.652;2023-06-01T05:18:34;8.95;;;3.63;;
69161;SDS011;56269;51.738;21.652;2023-06-01T05:21:01;11.75;;;3.78;;
69161;SDS011;56269;51.738;21.652;2023-06-01T05:23:28;8.48;;;3.70;;
69161;SDS011;56269;51.738;21.652;2023-06-01T05:25:57;9.90;;;3.87;;
69161;SDS011;56269;51.738;21.652;2023-06-01T05:28:31;10.27;;;3.70;;
69161;SDS011;56269;51.738;21.652;2023-06-01T05:30:58;10.27;;;3.90;;
69161;SDS011;56269;51.738;21.652;2023-06-01T05:33:24;9.90;;;3.88;;
69161;SDS011;56269;51.738;21.652;2023-06-01T05:35:51;8.35;;;3.60;;
69161;SDS011;56269;51.738;21.652;2023-06-01T05:38:17;8.87;;;3.57;;
69161;SDS011;56269;51.738;21.652;2023-06-01T05:40:44;9.05;;;3.78;;
69161;SDS011;56269;51.738;21.652;2023-06-01T05:43:10;8.15;;;3.78;;
69161;SDS011;56269;51.738;21.652;2023-06-01T05:45:37;8.93;;;3.90;;
69161;SDS011;56269;51.738;21.652;2023-06-01T05:48:03;8.20;;;3.60;;
69161;SDS011;56269;51.738;21.652;2023-06-01T05:50:29;8.53;;;4.10;;
69161;SDS011;56269;51.738;21.652;2023-06-01T05:52:55;9.25;;;3.83;;
69161;SDS011;56269;51.738;21.652;2023-06-01T05:55:22;8.25;;;3.60;;
69161;SDS011;56269;51.738;21.652;2023-06-01T05:57:48;7.18;;;2.95;;
69161;SDS011;56269;51.738;21.652;2023-06-01T06:00:14;6.90;;;3.10;;
69161;SDS011;56269;51.738;21.652;2023-06-01T06:02:42;7.20;;;3.28;;
69161;SDS011;56269;51.738;21.652;2023-06-01T06:05:09;8.73;;;3.33;;
69161;SDS011;56269;51.738;21.652;2023-06-01T06:07:36;8.93;;;3.58;;
69161;SDS011;56269;51.738;21.652;2023-06-01T06:10:03;8.52;;;3.20;;
69161;SDS011;56269;51.738;21.652;2023-06-01T06:12:29;9.73;;;3.40;;
69161;SDS011;56269;51.738;21.652;2023-06-01T06:14:57;8.35;;;3.10;;
69161;SDS011;56269;51.738;21.652;2023-06-01T06:17:23;8.15;;;3.05;;
69161;SDS011;56269;51.738;21.652;2023-06-01T06:19:50;9.35;;;3.30;;
69161;SDS011;56269;51.738;21.652;2023-06-01T06:22:16;8.77;;;3.38;;
69161;SDS011;56269;51.738;21.652;2023-06-01T06:24:42;7.57;;;3.10;;
69161;SDS011;56269;51.738;21.652;2023-06-01T06:27:09;7.72;;;2.95;;
69161;SDS011;56269;51.738;21.652;2023-06-01T06:29:36;10.07;;;3.25;;
69161;SDS011;56269;51.738;21.652;2023-06-01T06:32:02;8.82;;;3.03;;
69161;SDS011;56269;51.738;21.652;2023-06-01T06:34:28;7.70;;;3.10;;
69161;SDS011;56269;51.738;21.652;2023-06-01T06:37:07;7.83;;;2.77;;
69161;SDS011;56269;51.738;21.652;2023-06-01T06:39:33;6.43;;;2.90;;
69161;SDS011;56269;51.738;21.652;2023-06-01T06:42:00;7.63;;;3.83;;
69161;SDS011;56269;51.738;21.652;2023-06-01T06:44:29;7.13;;;2.80;;
69161;SDS011;56269;51.738;21.652;2023-06-01T06:46:57;8.32;;;3.10;;
69161;SDS011;56269;51.738;21.652;2023-06-01T06:49:24;8.23;;;2.70;;
69161;SDS011;56269;51.738;21.652;2023-06-01T06:51:50;8.00;;;2.70;;
69161;SDS011;56269;51.738;21.652;2023-06-01T06:54:17;9.45;;;2.80;;
69161;SDS011;56269;51.738;21.652;2023-06-01T06:56:43;7.00;;;2.72;;
69161;SDS011;56269;51.738;21.652;2023-06-01T06:59:10;9.57;;;3.55;;
69161;SDS011;56269;51.738;21.652;2023-06-01T07:01:36;10.47;;;2.90;;
69161;SDS011;56269;51.738;21.652;2023-06-01T07:04:03;6.18;;;2.47;;
69161;SDS011;56269;51.738;21.652;2023-06-01T07:06:32;7.07;;;2.70;;
69161;SDS011;56269;51.738;21.652;2023-06-01T07:08:59;6.38;;;2.47;;
69161;SDS011;56269;51.738;21.652;2023-06-01T07:11:26;6.43;;;2.50;;
69161;SDS011;56269;51.738;21.652;2023-06-01T07:13:53;7.73;;;2.37;;
69161;SDS011;56269;51.738;21.652;2023-06-01T07:16:21;6.85;;;2.20;;
69161;SDS011;56269;51.738;21.652;2023-06-01T07:18:47;5.13;;;1.92;;
69161;SDS011;56269;51.738;21.652;2023-06-01T07:21:13;5.93;;;2.40;;
69161;SDS011;56269;51.738;21.652;2023-06-01T07:23:41;6.65;;;2.50;;
69161;SDS011;56269;51.738;21.652;2023-06-01T07:26:08;6.23;;;1.97;;
69161;SDS011;56269;51.738;21.652;2023-06-01T07:28:34;4.85;;;2.13;;
69161;SDS011;56269;51.738;21.652;2023-06-01T07:31:01;6.30;;;2.38;;
69161;SDS011;56269;51.738;21.652;2023-06-01T07:33:27;6.90;;;2.00;;
69161;SDS011;56269;51.738;21.652;2023-06-01T07:35:54;5.20;;;2.20;;
69161;SDS011;56269;51.738;21.652;2023-06-01T07:38:22;5.80;;;2.20;;
69161;SDS011;56269;51.738;21.652;2023-06-01T07:40:49;4.80;;;2.00;;
69161;SDS011;56269;51.738;21.652;2023-06-01T07:43:16;8.13;;;2.42;;
69161;SDS011;56269;51.738;21.652;2023-06-01T07:45:42;6.97;;;2.33;;
69161;SDS011;56269;51.738;21.652;2023-06-01T07:48:09;6.30;;;2.17;;
69161;SDS011;56269;51.738;21.652;2023-06-01T07:50:35;6.23;;;2.20;;
69161;SDS011;56269;51.738;21.652;2023-06-01T07:53:02;7.15;;;2.13;;
69161;SDS011;56269;51.738;21.652;2023-06-01T07:55:28;6.57;;;2.17;;
69161;SDS011;56269;51.738;21.652;2023-06-01T07:57:55;7.57;;;2.10;;
69161;SDS011;56269;51.738;21.652;2023-06-01T08:00:21;6.28;;;2.38;;
69161;SDS011;56269;51.738;21.652;2023-06-01T08:02:48;6.17;;;2.13;;
69161;SDS011;56269;51.738;21.652;2023-06-01T08:05:14;7.60;;;2.40;;
69161;SDS011;56269;51.738;21.652;2023-06-01T08:07:44;5.88;;;2.22;;
69161;SDS011;56269;51.738;21.652;2023-06-01T08:10:14;7.10;;;2.40;;
69161;SDS011;56269;51.738;21.652;2023-06-01T08:12:41;6.80;;;2.10;;
69161;SDS011;56269;51.738;21.652;2023-06-01T08:15:08;8.20;;;2.40;;
69161;SDS011;56269;51.738;21.652;2023-06-01T08:17:37;7.05;;;2.47;;
69161;SDS011;56269;51.738;21.652;2023-06-01T08:20:03;7.15;;;2.20;;
69161;SDS011;56269;51.738;21.652;2023-06-01T08:22:37;5.35;;;2.10;;
69161;SDS011;56269;51.738;21.652;2023-06-01T08:25:04;7.10;;;2.60;;
69161;SDS011;56269;51.738;21.652;2023-06-01T08:27:31;7.23;;;3.00;;
69161;SDS011;56269;51.738;21.652;2023-06-01T08:29:57;7.53;;;2.15;;
69161;SDS011;56269;51.738;21.652;2023-06-01T08:32:24;7.03;;;2.75;;
69161;SDS011;56269;51.738;21.652;2023-06-01T08:34:50;7.72;;;2.70;;
69161;SDS011;56269;51.738;21.652;2023-06-01T08:37:16;5.07;;;2.13;;
69161;SDS011;56269;51.738;21.652;2023-06-01T08:39:43;6.07;;;2.10;;
69161;SDS011;56269;51.738;21.652;2023-06-01T08:42:11;7.20;;;2.53;;
69161;SDS011;56269;51.738;21.652;2023-06-01T08:44:47;5.65;;;2.03;;
69161;SDS011;56269;51.738;21.652;2023-06-01T08:47:14;6.10;;;2.30;;
69161;SDS011;56269;51.738;21.652;2023-06-01T08:49:41;7.75;;;2.30;;
69161;SDS011;56269;51.738;21.652;2023-06-01T08:52:11;5.27;;;2.10;;
69161;SDS011;56269;51.738;21.652;2023-06-01T08:54:39;7.18;;;2.50;;
69161;SDS011;56269;51.738;21.652;2023-06-01T08:57:06;8.40;;;2.60;;
69161;SDS011;56269;51.738;21.652;2023-06-01T08:59:36;6.57;;;2.08;;
69161;SDS011;56269;51.738;21.652;2023-06-01T09:02:02;6.50;;;2.05;;
69161;SDS011;56269;51.738;21.652;2023-06-01T09:04:29;6.83;;;2.37;;
69161;SDS011;56269;51.738;21.652;2023-06-01T09:06:59;7.45;;;2.63;;
69161;SDS011;56269;51.738;21.652;2023-06-01T09:09:26;7.13;;;2.30;;
69161;SDS011;56269;51.738;21.652;2023-06-01T09:17:37;6.00;;;2.33;;
69161;SDS011;56269;51.738;21.652;2023-06-01T09:20:06;5.28;;;1.92;;
69161;SDS011;56269;51.738;21.652;2023-06-01T09:22:38;5.97;;;2.15;;
69161;SDS011;56269;51.738;21.652;2023-06-01T09:25:06;5.78;;;2.30;;
69161;SDS011;56269;51.738;21.652;2023-06-01T09:30:38;7.87;;;2.77;;
69161;SDS011;56269;51.738;21.652;2023-06-01T09:35:48;5.57;;;2.22;;
69161;SDS011;56269;51.738;21.652;2023-06-01T09:38:22;5.35;;;1.88;;
69161;SDS011;56269;51.738;21.652;2023-06-01T09:40:58;7.18;;;2.55;;
69161;SDS011;56269;51.738;21.652;2023-06-01T09:43:26;6.00;;;1.80;;
69161;SDS011;56269;51.738;21.652;2023-06-01T09:48:34;7.43;;;2.20;;
69161;SDS011;56269;51.738;21.652;2023-06-01T09:51:02;5.43;;;2.35;;
69161;SDS011;56269;51.738;21.652;2023-06-01T09:53:39;7.03;;;2.47;;
69161;SDS011;56269;51.738;21.652;2023-06-01T09:56:09;6.83;;;2.37;;
69161;SDS011;56269;51.738;21.652;2023-06-01T09:58:35;6.72;;;2.70;;
69161;SDS011;56269;51.738;21.652;2023-06-01T10:01:05;7.47;;;2.30;;
69161;SDS011;56269;51.738;21.652;2023-06-01T10:03:35;5.88;;;2.47;;
69161;SDS011;56269;51.738;21.652;2023-06-01T10:06:07;6.53;;;2.30;;
69161;SDS011;56269;51.738;21.652;2023-06-01T10:08:36;5.37;;;2.33;;
69161;SDS011;56269;51.738;21.652;2023-06-01T10:11:04;6.55;;;2.40;;
69161;SDS011;56269;51.738;21.652;2023-06-01T10:13:30;7.88;;;2.78;;
69161;SDS011;56269;51.738;21.652;2023-06-01T10:15:57;5.43;;;2.30;;
69161;SDS011;56269;51.738;21.652;2023-06-01T10:18:23;11.77;;;2.75;;
69161;SDS011;56269;51.738;21.652;2023-06-01T10:20:50;6.30;;;2.40;;
69161;SDS011;56269;51.738;21.652;2023-06-01T10:23:17;6.00;;;2.53;;
69161;SDS011;56269;51.738;21.652;2023-06-01T10:25:44;5.00;;;2.20;;
69161;SDS011;56269;51.738;21.652;2023-06-01T10:28:13;7.03;;;2.33;;
69161;SDS011;56269;51.738;21.652;2023-06-01T10:30:40;6.80;;;2.20;;
69161;SDS011;56269;51.738;21.652;2023-06-01T10:33:06;7.00;;;2.60;;
69161;SDS011;56269;51.738;21.652;2023-06-01T10:43:02;7.18;;;2.60;;
69161;SDS011;56269;51.738;21.652;2023-06-01T10:48:50;5.32;;;2.30;;
69161;SDS011;56269;51.738;21.652;2023-06-01T10:51:19;7.18;;;2.60;;
69161;SDS011;56269;51.738;21.652;2023-06-01T10:53:46;5.55;;;2.40;;
69161;SDS011;56269;51.738;21.652;2023-06-01T10:56:25;5.50;;;2.13;;
69161;SDS011;56269;51.738;21.652;2023-06-01T11:04:01;6.25;;;2.45;;
69161;SDS011;56269;51.738;21.652;2023-06-01T11:09:05;7.68;;;2.50;;
69161;SDS011;56269;51.738;21.652;2023-06-01T11:12:16;5.13;;;2.20;;
69161;SDS011;56269;51.738;21.652;2023-06-01T11:14:26;4.80;;;1.95;;
69161;SDS011;56269;51.738;21.652;2023-06-01T11:16:56;5.80;;;2.38;;
69161;SDS011;56269;51.738;21.652;2023-06-01T11:19:56;6.13;;;2.25;;
69161;SDS011;56269;51.738;21.652;2023-06-01T11:22:24;6.05;;;2.20;;
69161;SDS011;56269;51.738;21.652;2023-06-01T11:24:51;6.93;;;2.33;;
69161;SDS011;56269;51.738;21.652;2023-06-01T11:27:20;6.65;;;2.10;;
69161;SDS011;56269;51.738;21.652;2023-06-01T11:29:47;6.75;;;2.20;;
69161;SDS011;56269;51.738;21.652;2023-06-01T11:32:17;5.55;;;2.40;;
69161;SDS011;56269;51.738;21.652;2023-06-01T11:34:48;7.43;;;2.20;;
69161;SDS011;56269;51.738;21.652;2023-06-01T11:37:15;6.10;;;2.10;;
69161;SDS011;56269;51.738;21.652;2023-06-01T11:39:43;6.18;;;2.20;;
69161;SDS011;56269;51.738;21.652;2023-06-01T11:42:12;6.25;;;2.08;;
69161;SDS011;56269;51.738;21.652;2023-06-01T11:44:40;6.03;;;2.20;;
69161;SDS011;56269;51.738;21.652;2023-06-01T11:47:08;5.70;;;2.50;;
69161;SDS011;56269;51.738;21.652;2023-06-01T11:49:41;5.33;;;2.10;;
69161;SDS011;56269;51.738;21.652;2023-06-01T11:52:17;6.18;;;2.22;;
69161;SDS011;56269;51.738;21.652;2023-06-01T11:54:45;4.82;;;1.92;;
69161;SDS011;56269;51.738;21.652;2023-06-01T11:57:12;10.90;;;2.22;;
69161;SDS011;56269;51.738;21.652;2023-06-01T11:59:39;4.97;;;1.90;;
69161;SDS011;56269;51.738;21.652;2023-06-01T12:04:56;6.07;;;2.15;;
69161;SDS011;56269;51.738;21.652;2023-06-01T12:07:24;4.95;;;2.13;;
69161;SDS011;56269;51.738;21.652;2023-06-01T12:09:51;6.10;;;2.10;;
69161;SDS011;56269;51.738;21.652;2023-06-01T12:12:21;8.90;;;2.10;;
69161;SDS011;56269;51.738;21.652;2023-06-01T12:14:49;4.40;;;1.70;;
69161;SDS011;56269;51.738;21.652;2023-06-01T12:17:16;5.10;;;2.00;;
69161;SDS011;56269;51.738;21.652;2023-06-01T12:19:46;5.22;;;1.90;;
69161;SDS011;56269;51.738;21.652;2023-06-01T12:22:13;4.70;;;2.10;;
69161;SDS011;56269;51.738;21.652;2023-06-01T12:24:41;5.80;;;2.10;;
69161;SDS011;56269;51.738;21.652;2023-06-01T12:27:13;6.67;;;2.00;;
69161;SDS011;56269;51.738;21.652;2023-06-01T12:29:41;6.28;;;2.20;;
69161;SDS011;56269;51.738;21.652;2023-06-01T12:32:10;5.78;;;2.40;;
69161;SDS011;56269;51.738;21.652;2023-06-01T12:34:37;5.47;;;2.00;;
69161;SDS011;56269;51.738;21.652;2023-06-01T12:37:15;5.15;;;2.40;;
69161;SDS011;56269;51.738;21.652;2023-06-01T12:39:43;5.70;;;2.30;;
69161;SDS011;56269;51.738;21.652;2023-06-01T12:42:18;7.05;;;2.72;;
69161;SDS011;56269;51.738;21.652;2023-06-01T12:44:44;5.40;;;1.90;;
69161;SDS011;56269;51.738;21.652;2023-06-01T12:47:12;5.07;;;2.00;;
69161;SDS011;56269;51.738;21.652;2023-06-01T12:49:38;5.30;;;2.17;;
69161;SDS011;56269;51.738;21.652;2023-06-01T12:52:05;5.30;;;2.40;;
69161;SDS011;56269;51.738;21.652;2023-06-01T12:54:32;6.72;;;2.17;;
69161;SDS011;56269;51.738;21.652;2023-06-01T12:56:58;5.45;;;2.00;;
69161;SDS011;56269;51.738;21.652;2023-06-01T12:59:24;4.93;;;1.95;;
69161;SDS011;56269;51.738;21.652;2023-06-01T13:01:51;7.73;;;2.20;;
69161;SDS011;56269;51.738;21.652;2023-06-01T13:04:17;8.10;;;2.38;;
69161;SDS011;56269;51.738;21.652;2023-06-01T13:06:43;6.43;;;2.30;;
69161;SDS011;56269;51.738;21.652;2023-06-01T13:09:10;6.72;;;2.30;;
69161;SDS011;56269;51.738;21.652;2023-06-01T13:11:37;6.18;;;2.20;;
69161;SDS011;56269;51.738;21.652;2023-06-01T13:14:03;4.70;;;1.70;;
69161;SDS011;56269;51.738;21.652;2023-06-01T13:16:29;5.07;;;2.30;;
69161;SDS011;56269;51.738;21.652;2023-06-01T13:18:55;5.00;;;2.08;;
69161;SDS011;56269;51.738;21.652;2023-06-01T13:21:21;6.28;;;2.20;;
69161;SDS011;56269;51.738;21.652;2023-06-01T13:23:48;6.72;;;2.05;;
69161;SDS011;56269;51.738;21.652;2023-06-01T13:26:14;5.37;;;2.10;;
69161;SDS011;56269;51.738;21.652;2023-06-01T13:28:40;4.80;;;1.77;;
69161;SDS011;56269;51.738;21.652;2023-06-01T13:31:07;5.22;;;2.10;;
69161;SDS011;56269;51.738;21.652;2023-06-01T13:33:33;6.30;;;2.00;;
69161;SDS011;56269;51.738;21.652;2023-06-01T13:35:59;6.13;;;1.80;;
69161;SDS011;56269;51.738;21.652;2023-06-01T13:38:25;4.80;;;2.00;;
69161;SDS011;56269;51.738;21.652;2023-06-01T13:40:52;5.03;;;1.92;;
69161;SDS011;56269;51.738;21.652;2023-06-01T13:43:18;6.75;;;1.90;;
69161;SDS011;56269;51.738;21.652;2023-06-01T13:45:45;5.78;;;2.20;;
69161;SDS011;56269;51.738;21.652;2023-06-01T13:48:11;4.57;;;1.80;;
69161;SDS011;56269;51.738;21.652;2023-06-01T13:50:37;5.80;;;2.00;;
69161;SDS011;56269;51.738;21.652;2023-06-01T13:53:04;6.78;;;1.92;;
69161;SDS011;56269;51.738;21.652;2023-06-01T13:55:31;5.18;;;1.90;;
69161;SDS011;56269;51.738;21.652;2023-06-01T13:57:57;5.53;;;1.80;;
69161;SDS011;56269;51.738;21.652;2023-06-01T14:00:24;5.97;;;2.10;;
69161;SDS011;56269;51.738;21.652;2023-06-01T14:02:50;4.97;;;1.80;;
69161;SDS011;56269;51.738;21.652;2023-06-01T14:05:16;5.03;;;1.90;;
69161;SDS011;56269;51.738;21.652;2023-06-01T14:07:43;5.35;;;1.95;;
69161;SDS011;56269;51.738;21.652;2023-06-01T14:10:11;7.53;;;2.30;;
69161;SDS011;56269;51.738;21.652;2023-06-01T14:12:39;6.15;;;1.95;;
69161;SDS011;56269;51.738;21.652;2023-06-01T14:15:06;6.30;;;2.13;;
69161;SDS011;56269;51.738;21.652;2023-06-01T14:17:32;6.00;;;1.90;;
69161;SDS011;56269;51.738;21.652;2023-06-01T14:19:59;5.10;;;2.03;;
69161;SDS011;56269;51.738;21.652;2023-06-01T14:22:24;5.22;;;2.00;;
69161;SDS011;56269;51.738;21.652;2023-06-01T14:24:51;6.07;;;1.90;;
69161;SDS011;56269;51.738;21.652;2023-06-01T14:27:17;5.50;;;2.10;;
69161;SDS011;56269;51.738;21.652;2023-06-01T14:29:44;6.13;;;1.52;;
69161;SDS011;56269;51.738;21.652;2023-06-01T14:32:10;4.28;;;1.70;;
69161;SDS011;56269;51.738;21.652;2023-06-01T14:34:36;6.35;;;1.83;;
69161;SDS011;56269;51.738;21.652;2023-06-01T14:37:02;4.40;;;1.70;;
69161;SDS011;56269;51.738;21.652;2023-06-01T14:39:30;8.00;;;1.80;;
69161;SDS011;56269;51.738;21.652;2023-06-01T14:41:56;6.40;;;2.13;;
69161;SDS011;56269;51.738;21.652;2023-06-01T14:44:23;5.10;;;2.00;;
69161;SDS011;56269;51.738;21.652;2023-06-01T14:46:49;6.88;;;2.45;;
69161;SDS011;56269;51.738;21.652;2023-06-01T14:49:15;4.68;;;1.90;;
69161;SDS011;56269;51.738;21.652;2023-06-01T14:51:41;5.07;;;2.10;;
69161;SDS011;56269;51.738;21.652;2023-06-01T14:54:07;5.10;;;2.00;;
69161;SDS011;56269;51.738;21.652;2023-06-01T14:56:33;6.47;;;2.08;;
69161;SDS011;56269;51.738;21.652;2023-06-01T14:59:00;5.82;;;2.00;;
69161;SDS011;56269;51.738;21.652;2023-06-01T15:01:26;7.90;;;2.20;;
69161;SDS011;56269;51.738;21.652;2023-06-01T15:03:52;8.00;;;2.10;;
69161;SDS011;56269;51.738;21.652;2023-06-01T15:06:18;7.55;;;2.35;;
69161;SDS011;56269;51.738;21.652;2023-06-01T15:08:45;5.80;;;2.45;;
69161;SDS011;56269;51.738;21.652;2023-06-01T15:11:11;4.32;;;1.58;;
69161;SDS011;56269;51.738;21.652;2023-06-01T15:13:39;4.85;;;2.00;;
69161;SDS011;56269;51.738;21.652;2023-06-01T15:16:07;5.50;;;2.20;;
69161;SDS011;56269;51.738;21.652;2023-06-01T15:18:34;6.43;;;2.30;;
69161;SDS011;56269;51.738;21.652;2023-06-01T15:21:00;6.50;;;2.05;;